This is the latest recevied weather packets stored in our database for station/object DL3MEB-6. If no packets are shown the sender has not sent any weather packets the latest 10 day(s).
| Time | Temp. | Humidity | Pressure | Rain* | Wind** | Luminosity | Snow |
|---|---|---|---|---|---|---|---|
| 1777974837 | 21.11° C | 46% | 1005.6 hPa | 0 mm | - | - | - |
| 1777973937 | 20.56° C | 47% | 1005.9 hPa | 0 mm | - | - | - |
| 1777973036 | 20° C | 49% | 1006 hPa | 0 mm | - | - | - |
| 1777972127 | 19.44° C | 55% | 1006.1 hPa | 0 mm | - | - | - |
| 1777971219 | 18.89° C | 53% | 1006.4 hPa | 0 mm | - | - | - |
| 1777970313 | 18.33° C | 59% | 1006.6 hPa | 0 mm | - | - | - |
| 1777969414 | 17.78° C | 63% | 1006.8 hPa | 0 mm | - | - | - |
| 1777968504 | 16.67° C | 68% | 1006.9 hPa | 0 mm | - | - | - |
| 1777967599 | 16.11° C | 72% | 1007.1 hPa | 0 mm | - | - | - |
| 1777966697 | 15.56° C | 74% | 1007.2 hPa | 0 mm | - | - | - |
| 1777965798 | 15° C | 78% | 1007.2 hPa | 0 mm | - | - | - |
| 1777964897 | 14.44° C | 81% | 1007.1 hPa | 0 mm | - | - | - |
| 1777963990 | 13.89° C | 82% | 1007.3 hPa | 0 mm | - | - | - |
| 1777963078 | 13.33° C | 84% | 1007.3 hPa | 0 mm | - | - | - |
| 1777962170 | 13.33° C | 86% | 1007.5 hPa | 0 mm | - | - | - |
| 1777961266 | 12.78° C | 88% | 1007.5 hPa | 0 mm | - | - | - |
| 1777960360 | 12.22° C | 91% | 1007.7 hPa | 0 mm | - | - | - |
| 1777959447 | 11.67° C | 92% | 1007.7 hPa | 0 mm | - | - | - |
| 1777958547 | 11.11° C | 92% | 1007.6 hPa | 0 mm | - | - | - |
| 1777957631 | 11.11° C | 92% | 1007.6 hPa | 0 mm | - | - | - |
| 1777956723 | 11.11° C | 91% | 1007.5 hPa | 0 mm | - | - | - |
| 1777955822 | 11.11° C | 91% | 1007.5 hPa | 0 mm | - | - | - |
| 1777954915 | 11.11° C | 90% | 1007.4 hPa | 0 mm | - | - | - |
| 1777954011 | 11.67° C | 89% | 1007.6 hPa | 0 mm | - | - | - |
| 1777953103 | 11.67° C | 90% | 1007.5 hPa | 0 mm | - | - | - |
* Rain latest hour (hover to see other rain measurements)
** Current wind speed in m/s (hover to see current wind gust speed)